sensor_id;sensor_type;location;lat;lon;timestamp;P1;durP1;ratioP1;P2;durP2;ratioP2
78079;SDS011;67298;51.322;5.958;2024-02-04T00:03:13;18.0;;;8.6;;
78079;SDS011;67298;51.322;5.958;2024-02-04T00:07:52;21.7;;;9.7;;
78079;SDS011;67298;51.322;5.958;2024-02-04T00:12:31;16.4;;;6.2;;
78079;SDS011;67298;51.322;5.958;2024-02-04T00:17:11;12.3;;;7.9;;
78079;SDS011;67298;51.322;5.958;2024-02-04T00:21:50;20.2;;;9.7;;
78079;SDS011;67298;51.322;5.958;2024-02-04T00:26:29;21.0;;;11.0;;
78079;SDS011;67298;51.322;5.958;2024-02-04T00:31:09;22.8;;;11.8;;
78079;SDS011;67298;51.322;5.958;2024-02-04T00:35:48;16.7;;;8.6;;
78079;SDS011;67298;51.322;5.958;2024-02-04T00:40:28;13.9;;;7.1;;
78079;SDS011;67298;51.322;5.958;2024-02-04T00:45:09;17.8;;;8.6;;
78079;SDS011;67298;51.322;5.958;2024-02-04T00:49:48;12.7;;;6.5;;
78079;SDS011;67298;51.322;5.958;2024-02-04T00:54:28;10.6;;;6.7;;
78079;SDS011;67298;51.322;5.958;2024-02-04T00:59:07;20.3;;;8.5;;
78079;SDS011;67298;51.322;5.958;2024-02-04T01:03:47;18.0;;;10.0;;
78079;SDS011;67298;51.322;5.958;2024-02-04T01:08:26;19.7;;;10.8;;
78079;SDS011;67298;51.322;5.958;2024-02-04T01:13:05;19.3;;;9.7;;
78079;SDS011;67298;51.322;5.958;2024-02-04T01:17:45;16.6;;;9.6;;
78079;SDS011;67298;51.322;5.958;2024-02-04T01:22:24;23.1;;;11.1;;
78079;SDS011;67298;51.322;5.958;2024-02-04T01:27:04;21.9;;;10.7;;
78079;SDS011;67298;51.322;5.958;2024-02-04T01:31:43;22.5;;;11.7;;
78079;SDS011;67298;51.322;5.958;2024-02-04T01:36:22;21.4;;;11.5;;
78079;SDS011;67298;51.322;5.958;2024-02-04T01:41:02;24.0;;;12.5;;
78079;SDS011;67298;51.322;5.958;2024-02-04T01:45:41;21.1;;;11.4;;
78079;SDS011;67298;51.322;5.958;2024-02-04T01:50:20;12.0;;;6.8;;
78079;SDS011;67298;51.322;5.958;2024-02-04T01:55:00;12.7;;;5.5;;
78079;SDS011;67298;51.322;5.958;2024-02-04T01:59:39;21.6;;;11.5;;
78079;SDS011;67298;51.322;5.958;2024-02-04T02:04:19;18.4;;;7.3;;
78079;SDS011;67298;51.322;5.958;2024-02-04T02:09:00;20.4;;;9.1;;
78079;SDS011;67298;51.322;5.958;2024-02-04T02:13:40;17.3;;;9.6;;
78079;SDS011;67298;51.322;5.958;2024-02-04T02:18:19;21.6;;;10.5;;
78079;SDS011;67298;51.322;5.958;2024-02-04T02:22:58;13.8;;;7.3;;
78079;SDS011;67298;51.322;5.958;2024-02-04T02:27:38;20.8;;;10.7;;
78079;SDS011;67298;51.322;5.958;2024-02-04T02:32:17;22.1;;;11.3;;
78079;SDS011;67298;51.322;5.958;2024-02-04T02:36:59;20.6;;;11.9;;
78079;SDS011;67298;51.322;5.958;2024-02-04T02:41:38;19.2;;;11.7;;
78079;SDS011;67298;51.322;5.958;2024-02-04T02:46:17;20.5;;;11.6;;
78079;SDS011;67298;51.322;5.958;2024-02-04T02:50:57;21.1;;;9.6;;
78079;SDS011;67298;51.322;5.958;2024-02-04T02:55:37;18.7;;;8.1;;
78079;SDS011;67298;51.322;5.958;2024-02-04T03:00:17;20.6;;;9.6;;
78079;SDS011;67298;51.322;5.958;2024-02-04T03:04:56;21.7;;;9.6;;
78079;SDS011;67298;51.322;5.958;2024-02-04T03:09:36;21.3;;;11.3;;
78079;SDS011;67298;51.322;5.958;2024-02-04T03:14:15;21.2;;;9.9;;
78079;SDS011;67298;51.322;5.958;2024-02-04T03:18:57;16.1;;;8.8;;
78079;SDS011;67298;51.322;5.958;2024-02-04T03:23:41;19.1;;;10.3;;
78079;SDS011;67298;51.322;5.958;2024-02-04T03:28:24;21.2;;;12.2;;
78079;SDS011;67298;51.322;5.958;2024-02-04T03:33:03;12.7;;;7.0;;
78079;SDS011;67298;51.322;5.958;2024-02-04T03:37:43;24.2;;;11.9;;
78079;SDS011;67298;51.322;5.958;2024-02-04T03:42:28;17.3;;;8.6;;
78079;SDS011;67298;51.322;5.958;2024-02-04T03:47:09;20.1;;;9.4;;
78079;SDS011;67298;51.322;5.958;2024-02-04T03:51:48;19.8;;;10.5;;
78079;SDS011;67298;51.322;5.958;2024-02-04T03:56:27;14.7;;;7.4;;
78079;SDS011;67298;51.322;5.958;2024-02-04T04:01:07;17.3;;;8.6;;
78079;SDS011;67298;51.322;5.958;2024-02-04T04:05:46;16.3;;;9.6;;
78079;SDS011;67298;51.322;5.958;2024-02-04T04:10:25;16.8;;;9.2;;
78079;SDS011;67298;51.322;5.958;2024-02-04T04:15:05;12.8;;;5.6;;
78079;SDS011;67298;51.322;5.958;2024-02-04T04:19:44;19.6;;;8.9;;
78079;SDS011;67298;51.322;5.958;2024-02-04T04:24:23;18.6;;;8.6;;
78079;SDS011;67298;51.322;5.958;2024-02-04T04:29:05;16.4;;;8.5;;
78079;SDS011;67298;51.322;5.958;2024-02-04T04:33:44;0.7;;;0.7;;
78079;SDS011;67298;51.322;5.958;2024-02-04T04:38:24;10.8;;;5.3;;
78079;SDS011;67298;51.322;5.958;2024-02-04T04:43:03;16.5;;;8.2;;
78079;SDS011;67298;51.322;5.958;2024-02-04T04:47:42;21.4;;;11.6;;
78079;SDS011;67298;51.322;5.958;2024-02-04T04:52:22;28.0;;;11.2;;
78079;SDS011;67298;51.322;5.958;2024-02-04T04:57:01;17.9;;;8.3;;
78079;SDS011;67298;51.322;5.958;2024-02-04T05:01:41;21.2;;;10.2;;
78079;SDS011;67298;51.322;5.958;2024-02-04T05:06:20;20.1;;;9.0;;
78079;SDS011;67298;51.322;5.958;2024-02-04T05:11:00;20.0;;;9.9;;
78079;SDS011;67298;51.322;5.958;2024-02-04T05:15:41;19.7;;;8.2;;
78079;SDS011;67298;51.322;5.958;2024-02-04T05:20:20;17.3;;;9.0;;
78079;SDS011;67298;51.322;5.958;2024-02-04T05:25:00;22.8;;;11.0;;
78079;SDS011;67298;51.322;5.958;2024-02-04T05:29:40;19.8;;;9.3;;
78079;SDS011;67298;51.322;5.958;2024-02-04T05:34:19;8.9;;;5.2;;
78079;SDS011;67298;51.322;5.958;2024-02-04T05:38:59;16.0;;;7.7;;
78079;SDS011;67298;51.322;5.958;2024-02-04T05:43:38;27.0;;;11.4;;
78079;SDS011;67298;51.322;5.958;2024-02-04T05:48:17;24.5;;;10.9;;
78079;SDS011;67298;51.322;5.958;2024-02-04T05:52:57;22.5;;;9.9;;
78079;SDS011;67298;51.322;5.958;2024-02-04T05:57:36;18.9;;;9.1;;
78079;SDS011;67298;51.322;5.958;2024-02-04T06:02:15;20.9;;;9.8;;
78079;SDS011;67298;51.322;5.958;2024-02-04T06:06:55;22.4;;;9.7;;
78079;SDS011;67298;51.322;5.958;2024-02-04T06:11:34;1.7;;;1.7;;
78079;SDS011;67298;51.322;5.958;2024-02-04T06:16:14;16.3;;;7.7;;
78079;SDS011;67298;51.322;5.958;2024-02-04T06:20:53;19.5;;;8.9;;
78079;SDS011;67298;51.322;5.958;2024-02-04T06:25:33;20.4;;;9.1;;
78079;SDS011;67298;51.322;5.958;2024-02-04T06:30:13;20.8;;;9.0;;
78079;SDS011;67298;51.322;5.958;2024-02-04T06:34:52;14.5;;;8.6;;
78079;SDS011;67298;51.322;5.958;2024-02-04T06:39:32;18.3;;;8.8;;
78079;SDS011;67298;51.322;5.958;2024-02-04T06:44:11;23.3;;;10.2;;
78079;SDS011;67298;51.322;5.958;2024-02-04T06:48:50;23.4;;;10.7;;
78079;SDS011;67298;51.322;5.958;2024-02-04T06:53:30;17.9;;;8.2;;
78079;SDS011;67298;51.322;5.958;2024-02-04T06:58:09;11.1;;;7.5;;
78079;SDS011;67298;51.322;5.958;2024-02-04T07:02:51;16.7;;;9.8;;
78079;SDS011;67298;51.322;5.958;2024-02-04T07:07:30;18.4;;;9.3;;
78079;SDS011;67298;51.322;5.958;2024-02-04T07:12:09;15.0;;;8.4;;
78079;SDS011;67298;51.322;5.958;2024-02-04T07:16:49;20.6;;;9.9;;
78079;SDS011;67298;51.322;5.958;2024-02-04T07:21:28;21.1;;;10.3;;
78079;SDS011;67298;51.322;5.958;2024-02-04T07:26:08;22.3;;;10.5;;
78079;SDS011;67298;51.322;5.958;2024-02-04T07:30:47;19.9;;;9.7;;
78079;SDS011;67298;51.322;5.958;2024-02-04T07:35:26;18.5;;;7.8;;
78079;SDS011;67298;51.322;5.958;2024-02-04T07:40:06;19.2;;;10.0;;
78079;SDS011;67298;51.322;5.958;2024-02-04T07:44:45;2.7;;;1.4;;
78079;SDS011;67298;51.322;5.958;2024-02-04T07:49:25;9.7;;;4.1;;
78079;SDS011;67298;51.322;5.958;2024-02-04T07:54:04;13.0;;;5.3;;
78079;SDS011;67298;51.322;5.958;2024-02-04T07:58:43;16.9;;;7.3;;
78079;SDS011;67298;51.322;5.958;2024-02-04T08:03:23;17.4;;;8.2;;
78079;SDS011;67298;51.322;5.958;2024-02-04T08:08:02;16.2;;;7.5;;
78079;SDS011;67298;51.322;5.958;2024-02-04T08:12:42;12.5;;;6.0;;
78079;SDS011;67298;51.322;5.958;2024-02-04T08:17:21;15.9;;;7.8;;
78079;SDS011;67298;51.322;5.958;2024-02-04T08:22:00;16.7;;;7.6;;
78079;SDS011;67298;51.322;5.958;2024-02-04T08:26:40;17.0;;;9.2;;
78079;SDS011;67298;51.322;5.958;2024-02-04T08:31:20;13.9;;;7.7;;
78079;SDS011;67298;51.322;5.958;2024-02-04T08:35:59;14.9;;;5.3;;
78079;SDS011;67298;51.322;5.958;2024-02-04T08:40:39;14.3;;;6.7;;
78079;SDS011;67298;51.322;5.958;2024-02-04T08:45:18;12.1;;;6.6;;
78079;SDS011;67298;51.322;5.958;2024-02-04T08:49:58;3.0;;;2.8;;
78079;SDS011;67298;51.322;5.958;2024-02-04T08:54:38;15.5;;;8.5;;
78079;SDS011;67298;51.322;5.958;2024-02-04T08:59:17;14.1;;;7.0;;
78079;SDS011;67298;51.322;5.958;2024-02-04T09:03:56;15.3;;;8.0;;
78079;SDS011;67298;51.322;5.958;2024-02-04T09:08:36;18.1;;;8.5;;
78079;SDS011;67298;51.322;5.958;2024-02-04T09:13:15;17.6;;;9.5;;
78079;SDS011;67298;51.322;5.958;2024-02-04T09:17:55;18.7;;;9.9;;
78079;SDS011;67298;51.322;5.958;2024-02-04T09:22:34;19.1;;;8.6;;
78079;SDS011;67298;51.322;5.958;2024-02-04T09:27:14;17.1;;;8.4;;
78079;SDS011;67298;51.322;5.958;2024-02-04T09:31:53;16.3;;;8.6;;
78079;SDS011;67298;51.322;5.958;2024-02-04T09:36:32;13.9;;;7.1;;
78079;SDS011;67298;51.322;5.958;2024-02-04T09:41:12;16.6;;;8.4;;
78079;SDS011;67298;51.322;5.958;2024-02-04T09:45:51;12.1;;;6.2;;
78079;SDS011;67298;51.322;5.958;2024-02-04T09:50:30;11.2;;;6.2;;
78079;SDS011;67298;51.322;5.958;2024-02-04T09:55:10;15.7;;;8.7;;
78079;SDS011;67298;51.322;5.958;2024-02-04T09:59:49;12.6;;;5.5;;
78079;SDS011;67298;51.322;5.958;2024-02-04T10:04:29;15.5;;;7.5;;
78079;SDS011;67298;51.322;5.958;2024-02-04T10:09:08;10.8;;;5.0;;
78079;SDS011;67298;51.322;5.958;2024-02-04T10:13:47;14.8;;;8.6;;
78079;SDS011;67298;51.322;5.958;2024-02-04T10:18:27;16.9;;;9.8;;
78079;SDS011;67298;51.322;5.958;2024-02-04T10:23:06;14.3;;;6.9;;
78079;SDS011;67298;51.322;5.958;2024-02-04T10:27:46;16.6;;;7.4;;
78079;SDS011;67298;51.322;5.958;2024-02-04T10:32:27;14.8;;;8.2;;
78079;SDS011;67298;51.322;5.958;2024-02-04T10:37:06;13.4;;;6.8;;
78079;SDS011;67298;51.322;5.958;2024-02-04T10:41:46;15.6;;;8.4;;
78079;SDS011;67298;51.322;5.958;2024-02-04T10:46:27;13.1;;;6.9;;
78079;SDS011;67298;51.322;5.958;2024-02-04T10:51:07;18.9;;;9.1;;
78079;SDS011;67298;51.322;5.958;2024-02-04T10:55:46;14.4;;;6.8;;
78079;SDS011;67298;51.322;5.958;2024-02-04T11:00:27;15.5;;;7.3;;
78079;SDS011;67298;51.322;5.958;2024-02-04T11:05:06;18.2;;;8.7;;
78079;SDS011;67298;51.322;5.958;2024-02-04T11:09:46;20.5;;;8.3;;
78079;SDS011;67298;51.322;5.958;2024-02-04T11:14:25;16.9;;;7.9;;
78079;SDS011;67298;51.322;5.958;2024-02-04T11:19:04;17.0;;;8.5;;
78079;SDS011;67298;51.322;5.958;2024-02-04T11:23:44;9.0;;;4.8;;
78079;SDS011;67298;51.322;5.958;2024-02-04T11:28:25;10.7;;;4.3;;
78079;SDS011;67298;51.322;5.958;2024-02-04T11:33:05;16.2;;;8.8;;
78079;SDS011;67298;51.322;5.958;2024-02-04T11:37:44;17.4;;;7.9;;
78079;SDS011;67298;51.322;5.958;2024-02-04T11:42:24;18.4;;;8.9;;
78079;SDS011;67298;51.322;5.958;2024-02-04T11:47:04;14.1;;;7.5;;
78079;SDS011;67298;51.322;5.958;2024-02-04T11:51:45;9.0;;;5.2;;
78079;SDS011;67298;51.322;5.958;2024-02-04T11:56:25;16.2;;;6.9;;
78079;SDS011;67298;51.322;5.958;2024-02-04T12:01:07;13.9;;;6.2;;
78079;SDS011;67298;51.322;5.958;2024-02-04T12:05:47;15.3;;;7.6;;
78079;SDS011;67298;51.322;5.958;2024-02-04T12:10:27;13.0;;;6.0;;
78079;SDS011;67298;51.322;5.958;2024-02-04T12:15:06;10.3;;;4.4;;
78079;SDS011;67298;51.322;5.958;2024-02-04T12:19:47;12.3;;;5.0;;
78079;SDS011;67298;51.322;5.958;2024-02-04T12:24:34;14.4;;;6.7;;
78079;SDS011;67298;51.322;5.958;2024-02-04T12:29:24;14.9;;;5.3;;
78079;SDS011;67298;51.322;5.958;2024-02-04T12:34:03;14.5;;;7.3;;
78079;SDS011;67298;51.322;5.958;2024-02-04T12:38:43;12.7;;;5.5;;
78079;SDS011;67298;51.322;5.958;2024-02-04T12:43:23;13.6;;;7.2;;
78079;SDS011;67298;51.322;5.958;2024-02-04T12:48:05;11.7;;;6.7;;
78079;SDS011;67298;51.322;5.958;2024-02-04T12:52:46;10.5;;;5.4;;
78079;SDS011;67298;51.322;5.958;2024-02-04T12:57:34;11.4;;;6.0;;
78079;SDS011;67298;51.322;5.958;2024-02-04T13:02:13;10.1;;;5.5;;
78079;SDS011;67298;51.322;5.958;2024-02-04T13:06:52;11.5;;;6.5;;
78079;SDS011;67298;51.322;5.958;2024-02-04T13:11:32;8.1;;;4.6;;
78079;SDS011;67298;51.322;5.958;2024-02-04T13:16:12;11.5;;;6.3;;
78079;SDS011;67298;51.322;5.958;2024-02-04T13:20:52;13.4;;;6.4;;
78079;SDS011;67298;51.322;5.958;2024-02-04T13:25:31;9.2;;;4.1;;
78079;SDS011;67298;51.322;5.958;2024-02-04T13:30:11;7.4;;;3.4;;
78079;SDS011;67298;51.322;5.958;2024-02-04T13:34:50;8.6;;;5.2;;
78079;SDS011;67298;51.322;5.958;2024-02-04T13:39:30;8.7;;;4.7;;
78079;SDS011;67298;51.322;5.958;2024-02-04T13:44:09;13.3;;;6.9;;
78079;SDS011;67298;51.322;5.958;2024-02-04T13:48:50;11.2;;;4.4;;
78079;SDS011;67298;51.322;5.958;2024-02-04T13:53:30;10.5;;;6.1;;
78079;SDS011;67298;51.322;5.958;2024-02-04T13:58:10;12.0;;;6.6;;
78079;SDS011;67298;51.322;5.958;2024-02-04T14:02:49;12.3;;;6.5;;
78079;SDS011;67298;51.322;5.958;2024-02-04T14:07:29;6.7;;;3.8;;
78079;SDS011;67298;51.322;5.958;2024-02-04T14:12:08;10.6;;;6.0;;
78079;SDS011;67298;51.322;5.958;2024-02-04T14:16:47;10.2;;;5.4;;
78079;SDS011;67298;51.322;5.958;2024-02-04T14:21:27;10.8;;;5.5;;
78079;SDS011;67298;51.322;5.958;2024-02-04T14:26:06;13.7;;;7.2;;
78079;SDS011;67298;51.322;5.958;2024-02-04T14:30:46;13.2;;;6.0;;
78079;SDS011;67298;51.322;5.958;2024-02-04T14:35:25;14.3;;;5.6;;
78079;SDS011;67298;51.322;5.958;2024-02-04T14:40:04;14.4;;;6.5;;
78079;SDS011;67298;51.322;5.958;2024-02-04T14:44:44;12.7;;;6.1;;
78079;SDS011;67298;51.322;5.958;2024-02-04T14:49:23;11.1;;;5.6;;
78079;SDS011;67298;51.322;5.958;2024-02-04T14:54:03;12.3;;;5.7;;
78079;SDS011;67298;51.322;5.958;2024-02-04T14:58:42;11.1;;;6.5;;
78079;SDS011;67298;51.322;5.958;2024-02-04T15:03:21;13.2;;;6.7;;
78079;SDS011;67298;51.322;5.958;2024-02-04T15:08:01;4.3;;;2.5;;
78079;SDS011;67298;51.322;5.958;2024-02-04T15:12:42;9.4;;;6.1;;
78079;SDS011;67298;51.322;5.958;2024-02-04T15:17:22;12.2;;;5.2;;
78079;SDS011;67298;51.322;5.958;2024-02-04T15:22:01;13.1;;;5.8;;
78079;SDS011;67298;51.322;5.958;2024-02-04T15:26:43;9.9;;;5.7;;
78079;SDS011;67298;51.322;5.958;2024-02-04T15:31:28;11.1;;;5.0;;
78079;SDS011;67298;51.322;5.958;2024-02-04T15:36:08;11.2;;;6.2;;
78079;SDS011;67298;51.322;5.958;2024-02-04T15:40:49;10.2;;;4.7;;
78079;SDS011;67298;51.322;5.958;2024-02-04T15:45:29;10.8;;;5.9;;
78079;SDS011;67298;51.322;5.958;2024-02-04T15:50:08;9.8;;;4.9;;
78079;SDS011;67298;51.322;5.958;2024-02-04T15:54:48;12.7;;;5.7;;
78079;SDS011;67298;51.322;5.958;2024-02-04T15:59:27;11.5;;;6.3;;
78079;SDS011;67298;51.322;5.958;2024-02-04T16:04:07;14.2;;;6.1;;
78079;SDS011;67298;51.322;5.958;2024-02-04T16:08:49;6.8;;;4.4;;
78079;SDS011;67298;51.322;5.958;2024-02-04T16:13:28;8.8;;;5.8;;
78079;SDS011;67298;51.322;5.958;2024-02-04T16:18:08;13.6;;;5.4;;
78079;SDS011;67298;51.322;5.958;2024-02-04T16:22:48;12.6;;;5.9;;
78079;SDS011;67298;51.322;5.958;2024-02-04T16:27:27;10.2;;;4.6;;
78079;SDS011;67298;51.322;5.958;2024-02-04T16:32:07;8.3;;;4.1;;
78079;SDS011;67298;51.322;5.958;2024-02-04T16:36:47;9.3;;;4.8;;
78079;SDS011;67298;51.322;5.958;2024-02-04T16:41:26;8.5;;;5.1;;
78079;SDS011;67298;51.322;5.958;2024-02-04T16:46:06;0.2;;;0.2;;
78079;SDS011;67298;51.322;5.958;2024-02-04T16:50:48;6.4;;;3.9;;
78079;SDS011;67298;51.322;5.958;2024-02-04T16:55:28;6.6;;;4.6;;
78079;SDS011;67298;51.322;5.958;2024-02-04T17:00:08;8.9;;;5.2;;
78079;SDS011;67298;51.322;5.958;2024-02-04T17:04:49;11.5;;;5.6;;
78079;SDS011;67298;51.322;5.958;2024-02-04T17:09:29;7.4;;;4.7;;
78079;SDS011;67298;51.322;5.958;2024-02-04T17:14:08;11.2;;;5.4;;
78079;SDS011;67298;51.322;5.958;2024-02-04T17:18:51;9.4;;;5.8;;
78079;SDS011;67298;51.322;5.958;2024-02-04T17:23:31;9.6;;;5.6;;
78079;SDS011;67298;51.322;5.958;2024-02-04T17:28:10;10.1;;;5.2;;
78079;SDS011;67298;51.322;5.958;2024-02-04T17:32:50;9.0;;;5.6;;
78079;SDS011;67298;51.322;5.958;2024-02-04T17:37:29;11.1;;;6.1;;
78079;SDS011;67298;51.322;5.958;2024-02-04T17:42:08;8.9;;;5.7;;
78079;SDS011;67298;51.322;5.958;2024-02-04T17:46:48;2.5;;;2.3;;
78079;SDS011;67298;51.322;5.958;2024-02-04T17:51:27;9.5;;;5.6;;
78079;SDS011;67298;51.322;5.958;2024-02-04T17:56:10;11.8;;;5.6;;
78079;SDS011;67298;51.322;5.958;2024-02-04T18:00:51;11.6;;;6.2;;
78079;SDS011;67298;51.322;5.958;2024-02-04T18:05:30;8.3;;;5.2;;
78079;SDS011;67298;51.322;5.958;2024-02-04T18:10:10;9.4;;;5.5;;
78079;SDS011;67298;51.322;5.958;2024-02-04T18:14:51;9.4;;;6.4;;
78079;SDS011;67298;51.322;5.958;2024-02-04T18:19:31;9.9;;;5.8;;
78079;SDS011;67298;51.322;5.958;2024-02-04T18:24:12;10.6;;;6.1;;
78079;SDS011;67298;51.322;5.958;2024-02-04T18:28:57;11.3;;;5.9;;
78079;SDS011;67298;51.322;5.958;2024-02-04T18:33:37;11.8;;;6.7;;
78079;SDS011;67298;51.322;5.958;2024-02-04T18:38:17;13.4;;;7.3;;
78079;SDS011;67298;51.322;5.958;2024-02-04T18:42:56;11.0;;;6.7;;
78079;SDS011;67298;51.322;5.958;2024-02-04T18:47:36;9.5;;;5.9;;
78079;SDS011;67298;51.322;5.958;2024-02-04T18:52:15;10.8;;;6.5;;
78079;SDS011;67298;51.322;5.958;2024-02-04T18:56:55;12.4;;;5.7;;
78079;SDS011;67298;51.322;5.958;2024-02-04T19:01:35;11.9;;;6.9;;
78079;SDS011;67298;51.322;5.958;2024-02-04T19:06:14;10.3;;;6.3;;
78079;SDS011;67298;51.322;5.958;2024-02-04T19:10:56;7.4;;;6.2;;
78079;SDS011;67298;51.322;5.958;2024-02-04T19:15:35;9.8;;;6.3;;
78079;SDS011;67298;51.322;5.958;2024-02-04T19:20:14;9.6;;;5.7;;
78079;SDS011;67298;51.322;5.958;2024-02-04T19:24:54;5.9;;;4.3;;
78079;SDS011;67298;51.322;5.958;2024-02-04T19:29:33;11.6;;;6.8;;
78079;SDS011;67298;51.322;5.958;2024-02-04T19:34:13;11.9;;;6.1;;
78079;SDS011;67298;51.322;5.958;2024-02-04T19:38:52;13.2;;;6.6;;
78079;SDS011;67298;51.322;5.958;2024-02-04T19:43:32;12.6;;;6.2;;
78079;SDS011;67298;51.322;5.958;2024-02-04T19:48:13;7.4;;;4.8;;
78079;SDS011;67298;51.322;5.958;2024-02-04T19:52:53;10.4;;;6.4;;
78079;SDS011;67298;51.322;5.958;2024-02-04T19:57:32;10.9;;;6.3;;
78079;SDS011;67298;51.322;5.958;2024-02-04T20:02:11;10.6;;;6.8;;
78079;SDS011;67298;51.322;5.958;2024-02-04T20:06:51;10.0;;;5.7;;
78079;SDS011;67298;51.322;5.958;2024-02-04T20:11:30;10.2;;;6.1;;
78079;SDS011;67298;51.322;5.958;2024-02-04T20:16:12;12.2;;;6.5;;
78079;SDS011;67298;51.322;5.958;2024-02-04T20:20:52;11.1;;;6.7;;
78079;SDS011;67298;51.322;5.958;2024-02-04T20:25:31;9.4;;;6.2;;
78079;SDS011;67298;51.322;5.958;2024-02-04T20:30:11;10.6;;;6.3;;
78079;SDS011;67298;51.322;5.958;2024-02-04T20:34:50;9.2;;;5.2;;
78079;SDS011;67298;51.322;5.958;2024-02-04T20:39:29;11.3;;;6.4;;
78079;SDS011;67298;51.322;5.958;2024-02-04T20:44:09;11.2;;;6.6;;
78079;SDS011;67298;51.322;5.958;2024-02-04T20:48:48;12.6;;;7.0;;
78079;SDS011;67298;51.322;5.958;2024-02-04T20:53:28;12.5;;;7.3;;
78079;SDS011;67298;51.322;5.958;2024-02-04T20:58:08;12.0;;;6.1;;
78079;SDS011;67298;51.322;5.958;2024-02-04T21:02:47;11.8;;;6.5;;
78079;SDS011;67298;51.322;5.958;2024-02-04T21:07:26;11.4;;;5.9;;
78079;SDS011;67298;51.322;5.958;2024-02-04T21:12:08;9.2;;;5.4;;
78079;SDS011;67298;51.322;5.958;2024-02-04T21:16:48;10.4;;;5.8;;
78079;SDS011;67298;51.322;5.958;2024-02-04T21:21:27;11.7;;;5.5;;
78079;SDS011;67298;51.322;5.958;2024-02-04T21:26:07;8.9;;;5.1;;
78079;SDS011;67298;51.322;5.958;2024-02-04T21:30:46;9.8;;;5.7;;
78079;SDS011;67298;51.322;5.958;2024-02-04T21:35:25;10.3;;;6.1;;
78079;SDS011;67298;51.322;5.958;2024-02-04T21:40:05;11.3;;;6.4;;
78079;SDS011;67298;51.322;5.958;2024-02-04T21:44:44;9.6;;;6.1;;
78079;SDS011;67298;51.322;5.958;2024-02-04T21:49:24;9.7;;;4.9;;
78079;SDS011;67298;51.322;5.958;2024-02-04T21:54:03;11.3;;;6.5;;
78079;SDS011;67298;51.322;5.958;2024-02-04T21:58:43;16.4;;;6.9;;
78079;SDS011;67298;51.322;5.958;2024-02-04T22:03:22;4.6;;;3.8;;
78079;SDS011;67298;51.322;5.958;2024-02-04T22:08:02;10.0;;;6.1;;
78079;SDS011;67298;51.322;5.958;2024-02-04T22:12:41;11.4;;;6.3;;
78079;SDS011;67298;51.322;5.958;2024-02-04T22:17:21;11.7;;;6.6;;
78079;SDS011;67298;51.322;5.958;2024-02-04T22:22:02;10.6;;;6.5;;
78079;SDS011;67298;51.322;5.958;2024-02-04T22:26:42;7.7;;;4.5;;
78079;SDS011;67298;51.322;5.958;2024-02-04T22:31:21;10.6;;;6.3;;
78079;SDS011;67298;51.322;5.958;2024-02-04T22:36:02;10.3;;;5.9;;
78079;SDS011;67298;51.322;5.958;2024-02-04T22:40:42;11.1;;;6.4;;
78079;SDS011;67298;51.322;5.958;2024-02-04T22:45:21;11.1;;;5.8;;
78079;SDS011;67298;51.322;5.958;2024-02-04T22:50:01;9.6;;;6.4;;
78079;SDS011;67298;51.322;5.958;2024-02-04T22:54:40;12.0;;;7.4;;
78079;SDS011;67298;51.322;5.958;2024-02-04T22:59:20;17.1;;;10.4;;
78079;SDS011;67298;51.322;5.958;2024-02-04T23:03:59;11.1;;;7.1;;
78079;SDS011;67298;51.322;5.958;2024-02-04T23:08:38;15.6;;;8.4;;
78079;SDS011;67298;51.322;5.958;2024-02-04T23:13:18;21.2;;;9.5;;
78079;SDS011;67298;51.322;5.958;2024-02-04T23:17:57;20.0;;;10.5;;
78079;SDS011;67298;51.322;5.958;2024-02-04T23:22:37;22.3;;;10.4;;
78079;SDS011;67298;51.322;5.958;2024-02-04T23:27:16;16.3;;;8.6;;
78079;SDS011;67298;51.322;5.958;2024-02-04T23:31:56;17.2;;;10.0;;
78079;SDS011;67298;51.322;5.958;2024-02-04T23:36:35;14.8;;;8.6;;
78079;SDS011;67298;51.322;5.958;2024-02-04T23:41:15;14.9;;;9.0;;
78079;SDS011;67298;51.322;5.958;2024-02-04T23:45:54;13.9;;;8.4;;
78079;SDS011;67298;51.322;5.958;2024-02-04T23:50:33;14.3;;;7.7;;
78079;SDS011;67298;51.322;5.958;2024-02-04T23:55:13;15.2;;;9.0;;
78079;SDS011;67298;51.322;5.958;2024-02-04T23:59:54;15.7;;;8.9;;
